sensor_id;sensor_type;location;lat;lon;timestamp;temperature;humidity
63899;HTU21D;50070;-32.946;-60.652;2023-11-21T00:01:13;29.36;62.08
63899;HTU21D;50070;-32.946;-60.652;2023-11-21T00:03:39;29.23;62.27
63899;HTU21D;50070;-32.946;-60.652;2023-11-21T00:06:06;29.26;63.44
63899;HTU21D;50070;-32.946;-60.652;2023-11-21T00:08:35;29.16;65.17
63899;HTU21D;50070;-32.946;-60.652;2023-11-21T00:11:02;29.14;62.09
63899;HTU21D;50070;-32.946;-60.652;2023-11-21T00:13:32;29.24;65.55
63899;HTU21D;50070;-32.946;-60.652;2023-11-21T00:15:59;29.30;61.36
63899;HTU21D;50070;-32.946;-60.652;2023-11-21T00:18:25;29.43;54.89
63899;HTU21D;50070;-32.946;-60.652;2023-11-21T00:20:52;29.52;53.84
63899;HTU21D;50070;-32.946;-60.652;2023-11-21T00:23:19;29.42;55.15
63899;HTU21D;50070;-32.946;-60.652;2023-11-21T00:25:46;29.49;54.33
63899;HTU21D;50070;-32.946;-60.652;2023-11-21T00:28:12;29.47;54.90
63899;HTU21D;50070;-32.946;-60.652;2023-11-21T00:30:39;29.41;55.58
63899;HTU21D;50070;-32.946;-60.652;2023-11-21T00:33:06;29.45;54.89
63899;HTU21D;50070;-32.946;-60.652;2023-11-21T00:35:33;29.41;54.30
63899;HTU21D;50070;-32.946;-60.652;2023-11-21T00:38:00;29.65;53.20
63899;HTU21D;50070;-32.946;-60.652;2023-11-21T00:40:27;29.65;52.70
63899;HTU21D;50070;-32.946;-60.652;2023-11-21T00:42:53;29.81;51.51
63899;HTU21D;50070;-32.946;-60.652;2023-11-21T00:45:22;29.61;54.67
63899;HTU21D;50070;-32.946;-60.652;2023-11-21T00:47:48;29.52;55.42
63899;HTU21D;50070;-32.946;-60.652;2023-11-21T00:50:15;29.34;56.73
63899;HTU21D;50070;-32.946;-60.652;2023-11-21T00:52:42;29.28;56.48
63899;HTU21D;50070;-32.946;-60.652;2023-11-21T00:55:09;29.32;54.24
63899;HTU21D;50070;-32.946;-60.652;2023-11-21T00:57:36;29.56;51.87
63899;HTU21D;50070;-32.946;-60.652;2023-11-21T01:00:04;29.66;54.53
63899;HTU21D;50070;-32.946;-60.652;2023-11-21T01:02:43;29.41;55.72
63899;HTU21D;50070;-32.946;-60.652;2023-11-21T01:05:11;29.44;54.26
63899;HTU21D;50070;-32.946;-60.652;2023-11-21T01:07:37;29.42;53.18
63899;HTU21D;50070;-32.946;-60.652;2023-11-21T01:10:04;29.50;51.48
63899;HTU21D;50070;-32.946;-60.652;2023-11-21T01:12:37;29.66;49.08
63899;HTU21D;50070;-32.946;-60.652;2023-11-21T01:15:05;29.64;48.74
63899;HTU21D;50070;-32.946;-60.652;2023-11-21T01:17:35;29.57;49.21
63899;HTU21D;50070;-32.946;-60.652;2023-11-21T01:20:02;29.38;52.70
63899;HTU21D;50070;-32.946;-60.652;2023-11-21T01:22:32;29.51;50.90
63899;HTU21D;50070;-32.946;-60.652;2023-11-21T01:24:59;29.54;48.64
63899;HTU21D;50070;-32.946;-60.652;2023-11-21T01:27:25;29.46;49.63
63899;HTU21D;50070;-32.946;-60.652;2023-11-21T01:29:52;29.35;49.10
63899;HTU21D;50070;-32.946;-60.652;2023-11-21T01:32:19;29.47;48.70
63899;HTU21D;50070;-32.946;-60.652;2023-11-21T01:34:47;29.37;48.76
63899;HTU21D;50070;-32.946;-60.652;2023-11-21T01:37:14;29.52;47.33
63899;HTU21D;50070;-32.946;-60.652;2023-11-21T01:39:41;29.38;48.54
63899;HTU21D;50070;-32.946;-60.652;2023-11-21T01:42:07;29.23;51.21
63899;HTU21D;50070;-32.946;-60.652;2023-11-21T01:44:34;29.12;48.75
63899;HTU21D;50070;-32.946;-60.652;2023-11-21T01:47:01;29.36;45.90
63899;HTU21D;50070;-32.946;-60.652;2023-11-21T01:49:32;29.37;44.83
63899;HTU21D;50070;-32.946;-60.652;2023-11-21T01:51:59;29.02;44.67
63899;HTU21D;50070;-32.946;-60.652;2023-11-21T01:54:26;29.06;44.10
63899;HTU21D;50070;-32.946;-60.652;2023-11-21T01:57:01;28.88;43.89
63899;HTU21D;50070;-32.946;-60.652;2023-11-21T01:59:35;29.07;43.17
63899;HTU21D;50070;-32.946;-60.652;2023-11-21T02:02:06;29.16;43.18
63899;HTU21D;50070;-32.946;-60.652;2023-11-21T02:04:33;29.07;43.73
63899;HTU21D;50070;-32.946;-60.652;2023-11-21T02:07:01;29.12;43.12
63899;HTU21D;50070;-32.946;-60.652;2023-11-21T02:09:28;29.08;42.75
63899;HTU21D;50070;-32.946;-60.652;2023-11-21T02:11:56;28.86;42.88
63899;HTU21D;50070;-32.946;-60.652;2023-11-21T02:14:27;28.99;42.57
63899;HTU21D;50070;-32.946;-60.652;2023-11-21T02:16:55;29.06;41.63
63899;HTU21D;50070;-32.946;-60.652;2023-11-21T02:19:23;28.93;42.19
63899;HTU21D;50070;-32.946;-60.652;2023-11-21T02:21:52;29.02;41.75
63899;HTU21D;50070;-32.946;-60.652;2023-11-21T02:24:23;28.98;41.96
63899;HTU21D;50070;-32.946;-60.652;2023-11-21T02:26:50;28.94;41.75
63899;HTU21D;50070;-32.946;-60.652;2023-11-21T02:29:21;29.03;41.37
63899;HTU21D;50070;-32.946;-60.652;2023-11-21T02:31:52;29.05;41.39
63899;HTU21D;50070;-32.946;-60.652;2023-11-21T02:34:21;29.09;41.33
63899;HTU21D;50070;-32.946;-60.652;2023-11-21T02:36:49;29.00;41.65
63899;HTU21D;50070;-32.946;-60.652;2023-11-21T02:39:18;28.91;41.97
63899;HTU21D;50070;-32.946;-60.652;2023-11-21T02:41:48;28.91;42.06
63899;HTU21D;50070;-32.946;-60.652;2023-11-21T02:44:15;28.79;43.10
63899;HTU21D;50070;-32.946;-60.652;2023-11-21T02:46:42;28.77;42.88
63899;HTU21D;50070;-32.946;-60.652;2023-11-21T02:49:09;28.73;43.87
63899;HTU21D;50070;-32.946;-60.652;2023-11-21T02:51:36;28.67;43.93
63899;HTU21D;50070;-32.946;-60.652;2023-11-21T02:54:06;28.53;44.70
63899;HTU21D;50070;-32.946;-60.652;2023-11-21T02:56:34;28.54;44.89
63899;HTU21D;50070;-32.946;-60.652;2023-11-21T02:59:01;28.46;45.41
63899;HTU21D;50070;-32.946;-60.652;2023-11-21T03:01:28;28.50;45.56
63899;HTU21D;50070;-32.946;-60.652;2023-11-21T03:03:55;28.47;45.71
63899;HTU21D;50070;-32.946;-60.652;2023-11-21T03:06:22;28.53;45.40
63899;HTU21D;50070;-32.946;-60.652;2023-11-21T03:08:49;28.50;45.62
63899;HTU21D;50070;-32.946;-60.652;2023-11-21T03:11:17;28.53;45.67
63899;HTU21D;50070;-32.946;-60.652;2023-11-21T03:13:43;28.29;46.77
63899;HTU21D;50070;-32.946;-60.652;2023-11-21T03:16:11;28.26;47.43
63899;HTU21D;50070;-32.946;-60.652;2023-11-21T03:18:38;28.31;47.75
63899;HTU21D;50070;-32.946;-60.652;2023-11-21T03:21:05;28.19;48.44
63899;HTU21D;50070;-32.946;-60.652;2023-11-21T03:23:35;28.02;49.74
63899;HTU21D;50070;-32.946;-60.652;2023-11-21T03:26:03;28.04;50.02
63899;HTU21D;50070;-32.946;-60.652;2023-11-21T03:28:30;28.05;50.47
63899;HTU21D;50070;-32.946;-60.652;2023-11-21T03:30:56;28.15;50.14
63899;HTU21D;50070;-32.946;-60.652;2023-11-21T03:33:23;27.94;51.03
63899;HTU21D;50070;-32.946;-60.652;2023-11-21T03:35:50;27.95;51.18
63899;HTU21D;50070;-32.946;-60.652;2023-11-21T03:38:19;28.03;51.15
63899;HTU21D;50070;-32.946;-60.652;2023-11-21T03:40:46;28.04;51.46
63899;HTU21D;50070;-32.946;-60.652;2023-11-21T03:43:13;27.94;51.72
63899;HTU21D;50070;-32.946;-60.652;2023-11-21T03:45:40;27.71;53.36
63899;HTU21D;50070;-32.946;-60.652;2023-11-21T03:48:08;27.85;52.72
63899;HTU21D;50070;-32.946;-60.652;2023-11-21T03:50:35;28.00;52.00
63899;HTU21D;50070;-32.946;-60.652;2023-11-21T03:53:02;27.91;51.83
63899;HTU21D;50070;-32.946;-60.652;2023-11-21T03:55:29;27.99;52.02
63899;HTU21D;50070;-32.946;-60.652;2023-11-21T03:57:58;28.08;51.74
63899;HTU21D;50070;-32.946;-60.652;2023-11-21T04:00:25;28.12;51.95
63899;HTU21D;50070;-32.946;-60.652;2023-11-21T04:02:55;28.14;51.91
63899;HTU21D;50070;-32.946;-60.652;2023-11-21T04:05:22;28.09;52.21
63899;HTU21D;50070;-32.946;-60.652;2023-11-21T04:07:50;27.90;53.49
63899;HTU21D;50070;-32.946;-60.652;2023-11-21T04:10:20;27.85;54.26
63899;HTU21D;50070;-32.946;-60.652;2023-11-21T04:12:46;27.83;54.51
63899;HTU21D;50070;-32.946;-60.652;2023-11-21T04:15:14;27.90;54.62
63899;HTU21D;50070;-32.946;-60.652;2023-11-21T04:17:41;27.71;55.86
63899;HTU21D;50070;-32.946;-60.652;2023-11-21T04:20:09;27.67;56.41
63899;HTU21D;50070;-32.946;-60.652;2023-11-21T04:22:43;27.65;56.90
63899;HTU21D;50070;-32.946;-60.652;2023-11-21T04:25:11;27.76;56.81
63899;HTU21D;50070;-32.946;-60.652;2023-11-21T04:27:43;27.66;57.93
63899;HTU21D;50070;-32.946;-60.652;2023-11-21T04:30:13;27.70;58.31
63899;HTU21D;50070;-32.946;-60.652;2023-11-21T04:32:40;27.76;58.04
63899;HTU21D;50070;-32.946;-60.652;2023-11-21T04:35:08;27.73;58.48
63899;HTU21D;50070;-32.946;-60.652;2023-11-21T04:37:35;27.64;59.85
63899;HTU21D;50070;-32.946;-60.652;2023-11-21T04:40:02;27.80;58.49
63899;HTU21D;50070;-32.946;-60.652;2023-11-21T04:42:34;27.67;59.63
63899;HTU21D;50070;-32.946;-60.652;2023-11-21T04:45:03;27.85;58.94
63899;HTU21D;50070;-32.946;-60.652;2023-11-21T04:47:33;27.88;59.43
63899;HTU21D;50070;-32.946;-60.652;2023-11-21T04:50:00;27.83;60.47
63899;HTU21D;50070;-32.946;-60.652;2023-11-21T04:52:26;27.79;60.99
63899;HTU21D;50070;-32.946;-60.652;2023-11-21T04:54:53;27.75;61.91
63899;HTU21D;50070;-32.946;-60.652;2023-11-21T04:57:21;27.84;61.37
63899;HTU21D;50070;-32.946;-60.652;2023-11-21T04:59:49;27.56;64.09
63899;HTU21D;50070;-32.946;-60.652;2023-11-21T05:02:16;27.58;64.39
63899;HTU21D;50070;-32.946;-60.652;2023-11-21T05:04:45;27.63;64.70
63899;HTU21D;50070;-32.946;-60.652;2023-11-21T05:07:12;27.61;64.99
63899;HTU21D;50070;-32.946;-60.652;2023-11-21T05:09:42;27.73;64.28
63899;HTU21D;50070;-32.946;-60.652;2023-11-21T05:12:10;27.53;66.42
63899;HTU21D;50070;-32.946;-60.652;2023-11-21T05:14:37;27.68;65.40
63899;HTU21D;50070;-32.946;-60.652;2023-11-21T05:17:04;27.61;65.90
63899;HTU21D;50070;-32.946;-60.652;2023-11-21T05:19:31;27.59;66.94
63899;HTU21D;50070;-32.946;-60.652;2023-11-21T05:21:58;27.53;67.28
63899;HTU21D;50070;-32.946;-60.652;2023-11-21T05:24:26;27.49;68.17
63899;HTU21D;50070;-32.946;-60.652;2023-11-21T05:26:54;27.69;66.30
63899;HTU21D;50070;-32.946;-60.652;2023-11-21T05:29:22;27.76;65.98
63899;HTU21D;50070;-32.946;-60.652;2023-11-21T05:31:49;27.61;68.20
63899;HTU21D;50070;-32.946;-60.652;2023-11-21T05:34:15;27.46;71.13
63899;HTU21D;50070;-32.946;-60.652;2023-11-21T05:36:43;27.34;71.32
63899;HTU21D;50070;-32.946;-60.652;2023-11-21T05:39:12;27.43;69.76
63899;HTU21D;50070;-32.946;-60.652;2023-11-21T05:41:38;27.31;69.95
63899;HTU21D;50070;-32.946;-60.652;2023-11-21T05:44:05;27.54;68.81
63899;HTU21D;50070;-32.946;-60.652;2023-11-21T05:46:32;27.55;69.05
63899;HTU21D;50070;-32.946;-60.652;2023-11-21T05:48:59;27.21;75.16
63899;HTU21D;50070;-32.946;-60.652;2023-11-21T05:51:26;27.08;75.52
63899;HTU21D;50070;-32.946;-60.652;2023-11-21T05:53:52;27.09;75.16
63899;HTU21D;50070;-32.946;-60.652;2023-11-21T05:56:19;27.07;76.02
63899;HTU21D;50070;-32.946;-60.652;2023-11-21T05:58:46;27.19;73.52
63899;HTU21D;50070;-32.946;-60.652;2023-11-21T06:01:13;27.29;71.77
63899;HTU21D;50070;-32.946;-60.652;2023-11-21T06:03:40;27.36;70.72
63899;HTU21D;50070;-32.946;-60.652;2023-11-21T06:06:07;27.34;70.70
63899;HTU21D;50070;-32.946;-60.652;2023-11-21T06:08:34;27.38;70.17
63899;HTU21D;50070;-32.946;-60.652;2023-11-21T06:11:01;27.37;68.72
63899;HTU21D;50070;-32.946;-60.652;2023-11-21T06:13:27;27.23;71.29
63899;HTU21D;50070;-32.946;-60.652;2023-11-21T06:15:54;27.34;69.34
63899;HTU21D;50070;-32.946;-60.652;2023-11-21T06:18:21;27.38;68.86
63899;HTU21D;50070;-32.946;-60.652;2023-11-21T06:20:47;27.15;70.44
63899;HTU21D;50070;-32.946;-60.652;2023-11-21T06:23:14;27.02;71.82
63899;HTU21D;50070;-32.946;-60.652;2023-11-21T06:25:42;26.91;73.29
63899;HTU21D;50070;-32.946;-60.652;2023-11-21T06:28:09;27.02;72.56
63899;HTU21D;50070;-32.946;-60.652;2023-11-21T06:30:36;27.11;72.42
63899;HTU21D;50070;-32.946;-60.652;2023-11-21T06:33:03;27.12;73.21
63899;HTU21D;50070;-32.946;-60.652;2023-11-21T06:35:29;27.20;72.13
63899;HTU21D;50070;-32.946;-60.652;2023-11-21T06:37:59;27.00;73.62
63899;HTU21D;50070;-32.946;-60.652;2023-11-21T06:40:27;26.98;74.72
63899;HTU21D;50070;-32.946;-60.652;2023-11-21T06:42:53;26.94;75.03
63899;HTU21D;50070;-32.946;-60.652;2023-11-21T06:45:20;27.07;74.73
63899;HTU21D;50070;-32.946;-60.652;2023-11-21T06:47:47;27.01;75.73
63899;HTU21D;50070;-32.946;-60.652;2023-11-21T06:50:14;26.99;75.83
63899;HTU21D;50070;-32.946;-60.652;2023-11-21T06:52:41;27.00;75.74
63899;HTU21D;50070;-32.946;-60.652;2023-11-21T06:55:09;26.81;77.06
63899;HTU21D;50070;-32.946;-60.652;2023-11-21T06:57:37;26.94;76.53
63899;HTU21D;50070;-32.946;-60.652;2023-11-21T07:00:04;26.84;77.77
63899;HTU21D;50070;-32.946;-60.652;2023-11-21T07:02:36;26.98;76.36
63899;HTU21D;50070;-32.946;-60.652;2023-11-21T07:05:03;26.69;78.70
63899;HTU21D;50070;-32.946;-60.652;2023-11-21T07:07:30;26.77;78.62
63899;HTU21D;50070;-32.946;-60.652;2023-11-21T07:09:57;26.84;77.92
63899;HTU21D;50070;-32.946;-60.652;2023-11-21T07:12:30;26.80;78.62
63899;HTU21D;50070;-32.946;-60.652;2023-11-21T07:14:57;26.86;78.74
63899;HTU21D;50070;-32.946;-60.652;2023-11-21T07:17:24;26.96;77.80
63899;HTU21D;50070;-32.946;-60.652;2023-11-21T07:19:51;26.81;79.65
63899;HTU21D;50070;-32.946;-60.652;2023-11-21T07:22:18;26.78;79.78
63899;HTU21D;50070;-32.946;-60.652;2023-11-21T07:24:50;26.83;79.47
63899;HTU21D;50070;-32.946;-60.652;2023-11-21T07:27:17;26.75;81.28
63899;HTU21D;50070;-32.946;-60.652;2023-11-21T07:29:44;26.72;82.72
63899;HTU21D;50070;-32.946;-60.652;2023-11-21T07:32:11;26.57;84.08
63899;HTU21D;50070;-32.946;-60.652;2023-11-21T07:34:39;26.51;84.56
63899;HTU21D;50070;-32.946;-60.652;2023-11-21T07:37:06;26.46;85.56
63899;HTU21D;50070;-32.946;-60.652;2023-11-21T07:39:32;26.61;83.74
63899;HTU21D;50070;-32.946;-60.652;2023-11-21T07:41:59;26.71;83.20
63899;HTU21D;50070;-32.946;-60.652;2023-11-21T07:44:26;26.68;84.16
63899;HTU21D;50070;-32.946;-60.652;2023-11-21T07:46:52;26.60;84.64
63899;HTU21D;50070;-32.946;-60.652;2023-11-21T07:49:24;26.55;85.67
63899;HTU21D;50070;-32.946;-60.652;2023-11-21T07:51:52;26.61;85.42
63899;HTU21D;50070;-32.946;-60.652;2023-11-21T07:54:19;26.55;86.21
63899;HTU21D;50070;-32.946;-60.652;2023-11-21T07:56:48;26.63;85.61
63899;HTU21D;50070;-32.946;-60.652;2023-11-21T07:59:15;26.58;87.20
63899;HTU21D;50070;-32.946;-60.652;2023-11-21T08:01:43;26.46;88.27
63899;HTU21D;50070;-32.946;-60.652;2023-11-21T08:04:11;26.48;88.92
63899;HTU21D;50070;-32.946;-60.652;2023-11-21T08:06:38;26.37;90.13
63899;HTU21D;50070;-32.946;-60.652;2023-11-21T08:09:07;26.41;90.29
63899;HTU21D;50070;-32.946;-60.652;2023-11-21T08:11:34;26.51;89.37
63899;HTU21D;50070;-32.946;-60.652;2023-11-21T08:14:01;26.55;88.62
63899;HTU21D;50070;-32.946;-60.652;2023-11-21T08:16:28;26.47;89.70
63899;HTU21D;50070;-32.946;-60.652;2023-11-21T08:18:54;26.64;88.11
63899;HTU21D;50070;-32.946;-60.652;2023-11-21T08:21:21;26.45;90.24
63899;HTU21D;50070;-32.946;-60.652;2023-11-21T08:23:50;26.60;88.81
63899;HTU21D;50070;-32.946;-60.652;2023-11-21T08:26:22;26.56;89.25
63899;HTU21D;50070;-32.946;-60.652;2023-11-21T08:28:49;26.55;88.76
63899;HTU21D;50070;-32.946;-60.652;2023-11-21T08:31:26;26.63;88.77
63899;HTU21D;50070;-32.946;-60.652;2023-11-21T08:33:53;26.56;89.31
63899;HTU21D;50070;-32.946;-60.652;2023-11-21T08:36:22;26.60;89.47
63899;HTU21D;50070;-32.946;-60.652;2023-11-21T08:38:52;26.61;89.47
63899;HTU21D;50070;-32.946;-60.652;2023-11-21T08:41:18;26.54;90.76
63899;HTU21D;50070;-32.946;-60.652;2023-11-21T08:43:55;26.48;91.27
63899;HTU21D;50070;-32.946;-60.652;2023-11-21T08:46:23;26.58;90.86
63899;HTU21D;50070;-32.946;-60.652;2023-11-21T08:48:51;26.41;92.33
63899;HTU21D;50070;-32.946;-60.652;2023-11-21T08:51:21;26.42;92.74
63899;HTU21D;50070;-32.946;-60.652;2023-11-21T08:53:48;26.45;92.10
63899;HTU21D;50070;-32.946;-60.652;2023-11-21T08:56:14;26.41;92.79
63899;HTU21D;50070;-32.946;-60.652;2023-11-21T08:58:41;26.46;93.35
63899;HTU21D;50070;-32.946;-60.652;2023-11-21T09:01:08;26.36;93.33
63899;HTU21D;50070;-32.946;-60.652;2023-11-21T09:03:35;26.37;93.87
63899;HTU21D;50070;-32.946;-60.652;2023-11-21T09:06:01;26.39;94.37
63899;HTU21D;50070;-32.946;-60.652;2023-11-21T09:08:29;26.32;95.36
63899;HTU21D;50070;-32.946;-60.652;2023-11-21T09:10:56;26.09;97.77
63899;HTU21D;50070;-32.946;-60.652;2023-11-21T09:13:23;26.09;99.64
63899;HTU21D;50070;-32.946;-60.652;2023-11-21T09:15:51;26.07;99.71
63899;HTU21D;50070;-32.946;-60.652;2023-11-21T09:18:18;26.35;96.98
63899;HTU21D;50070;-32.946;-60.652;2023-11-21T09:20:45;26.25;97.50
63899;HTU21D;50070;-32.946;-60.652;2023-11-21T09:23:11;26.32;96.97
63899;HTU21D;50070;-32.946;-60.652;2023-11-21T09:25:38;26.37;97.55
63899;HTU21D;50070;-32.946;-60.652;2023-11-21T09:28:06;26.32;98.64
63899;HTU21D;50070;-32.946;-60.652;2023-11-21T09:30:35;26.31;97.56
63899;HTU21D;50070;-32.946;-60.652;2023-11-21T09:33:03;26.31;98.21
63899;HTU21D;50070;-32.946;-60.652;2023-11-21T09:35:34;26.23;99.29
63899;HTU21D;50070;-32.946;-60.652;2023-11-21T09:38:01;26.35;98.15
63899;HTU21D;50070;-32.946;-60.652;2023-11-21T09:40:31;26.33;98.42
63899;HTU21D;50070;-32.946;-60.652;2023-11-21T09:42:58;26.25;100.21
63899;HTU21D;50070;-32.946;-60.652;2023-11-21T09:45:26;26.18;101.84
63899;HTU21D;50070;-32.946;-60.652;2023-11-21T09:47:57;26.27;103.51
63899;HTU21D;50070;-32.946;-60.652;2023-11-21T09:50:25;26.36;102.41
63899;HTU21D;50070;-32.946;-60.652;2023-11-21T09:55:44;26.32;101.77
63899;HTU21D;50070;-32.946;-60.652;2023-11-21T09:58:11;26.38;101.84
63899;HTU21D;50070;-32.946;-60.652;2023-11-21T10:00:44;26.58;99.45
63899;HTU21D;50070;-32.946;-60.652;2023-11-21T10:03:11;26.31;102.48
63899;HTU21D;50070;-32.946;-60.652;2023-11-21T10:05:39;26.34;102.00
63899;HTU21D;50070;-32.946;-60.652;2023-11-21T10:08:11;26.45;101.89
63899;HTU21D;50070;-32.946;-60.652;2023-11-21T10:10:46;26.58;100.58
63899;HTU21D;50070;-32.946;-60.652;2023-11-21T10:13:18;26.69;99.34
63899;HTU21D;50070;-32.946;-60.652;2023-11-21T10:15:50;26.54;101.20
63899;HTU21D;50070;-32.946;-60.652;2023-11-21T10:18:17;26.77;100.83
63899;HTU21D;50070;-32.946;-60.652;2023-11-21T10:20:45;26.72;101.61
63899;HTU21D;50070;-32.946;-60.652;2023-11-21T10:23:22;26.91;99.12
63899;HTU21D;50070;-32.946;-60.652;2023-11-21T10:25:50;26.75;101.17
63899;HTU21D;50070;-32.946;-60.652;2023-11-21T10:28:18;26.79;101.75
63899;HTU21D;50070;-32.946;-60.652;2023-11-21T10:30:45;26.83;100.99
63899;HTU21D;50070;-32.946;-60.652;2023-11-21T10:33:12;27.01;101.64
63899;HTU21D;50070;-32.946;-60.652;2023-11-21T10:35:46;27.13;99.93
63899;HTU21D;50070;-32.946;-60.652;2023-11-21T10:38:21;27.08;100.29
63899;HTU21D;50070;-32.946;-60.652;2023-11-21T10:40:50;27.02;101.59
63899;HTU21D;50070;-32.946;-60.652;2023-11-21T10:43:17;27.25;99.86
63899;HTU21D;50070;-32.946;-60.652;2023-11-21T10:45:45;27.47;98.48
63899;HTU21D;50070;-32.946;-60.652;2023-11-21T10:48:13;27.55;99.30
63899;HTU21D;50070;-32.946;-60.652;2023-11-21T10:50:45;27.24;102.51
63899;HTU21D;50070;-32.946;-60.652;2023-11-21T10:53:11;27.57;99.34
63899;HTU21D;50070;-32.946;-60.652;2023-11-21T10:55:39;27.65;98.32
63899;HTU21D;50070;-32.946;-60.652;2023-11-21T10:58:06;27.81;98.06
63899;HTU21D;50070;-32.946;-60.652;2023-11-21T11:00:33;27.85;97.07
63899;HTU21D;50070;-32.946;-60.652;2023-11-21T11:03:01;27.94;97.91
63899;HTU21D;50070;-32.946;-60.652;2023-11-21T11:05:30;27.84;98.66
63899;HTU21D;50070;-32.946;-60.652;2023-11-21T11:08:05;27.98;98.75
63899;HTU21D;50070;-32.946;-60.652;2023-11-21T11:10:32;27.72;99.87
63899;HTU21D;50070;-32.946;-60.652;2023-11-21T11:12:59;27.63;101.99
63899;HTU21D;50070;-32.946;-60.652;2023-11-21T11:15:27;27.60;103.39
63899;HTU21D;50070;-32.946;-60.652;2023-11-21T11:17:54;27.81;100.30
63899;HTU21D;50070;-32.946;-60.652;2023-11-21T11:20:34;28.19;98.26
63899;HTU21D;50070;-32.946;-60.652;2023-11-21T11:26:06;28.39;97.55
63899;HTU21D;50070;-32.946;-60.652;2023-11-21T11:28:48;28.55;97.86
63899;HTU21D;50070;-32.946;-60.652;2023-11-21T11:34:53;30.35;85.77
63899;HTU21D;50070;-32.946;-60.652;2023-11-21T11:37:22;31.11;80.85
63899;HTU21D;50070;-32.946;-60.652;2023-11-21T11:39:49;31.70;75.96
63899;HTU21D;50070;-32.946;-60.652;2023-11-21T11:42:18;31.27;81.46
63899;HTU21D;50070;-32.946;-60.652;2023-11-21T11:44:47;31.07;80.63
63899;HTU21D;50070;-32.946;-60.652;2023-11-21T11:47:26;30.25;83.25
63899;HTU21D;50070;-32.946;-60.652;2023-11-21T11:50:04;29.86;84.76
63899;HTU21D;50070;-32.946;-60.652;2023-11-21T11:52:41;30.61;77.39
63899;HTU21D;50070;-32.946;-60.652;2023-11-21T11:55:17;30.53;77.21
63899;HTU21D;50070;-32.946;-60.652;2023-11-21T11:57:45;30.11;79.20
63899;HTU21D;50070;-32.946;-60.652;2023-11-21T12:02:57;29.08;84.64
63899;HTU21D;50070;-32.946;-60.652;2023-11-21T12:05:29;28.80;86.74
63899;HTU21D;50070;-32.946;-60.652;2023-11-21T12:08:03;29.02;85.19
63899;HTU21D;50070;-32.946;-60.652;2023-11-21T12:10:34;29.42;81.31
63899;HTU21D;50070;-32.946;-60.652;2023-11-21T12:13:07;29.17;81.17
63899;HTU21D;50070;-32.946;-60.652;2023-11-21T12:15:34;29.29;80.19
63899;HTU21D;50070;-32.946;-60.652;2023-11-21T12:18:02;29.22;81.50
63899;HTU21D;50070;-32.946;-60.652;2023-11-21T12:20:30;28.75;85.04
63899;HTU21D;50070;-32.946;-60.652;2023-11-21T12:22:59;28.77;83.74
63899;HTU21D;50070;-32.946;-60.652;2023-11-21T12:25:27;28.61;85.61
63899;HTU21D;50070;-32.946;-60.652;2023-11-21T12:28:02;28.80;83.07
63899;HTU21D;50070;-32.946;-60.652;2023-11-21T12:30:30;28.69;84.58
63899;HTU21D;50070;-32.946;-60.652;2023-11-21T12:32:57;28.63;83.48
63899;HTU21D;50070;-32.946;-60.652;2023-11-21T12:35:25;28.64;84.81
63899;HTU21D;50070;-32.946;-60.652;2023-11-21T12:37:54;29.28;79.54
63899;HTU21D;50070;-32.946;-60.652;2023-11-21T12:40:23;29.18;79.25
63899;HTU21D;50070;-32.946;-60.652;2023-11-21T12:42:56;29.28;79.06
63899;HTU21D;50070;-32.946;-60.652;2023-11-21T12:45:28;29.88;76.03
63899;HTU21D;50070;-32.946;-60.652;2023-11-21T12:47:57;29.58;78.21
63899;HTU21D;50070;-32.946;-60.652;2023-11-21T12:50:28;30.04;75.18
63899;HTU21D;50070;-32.946;-60.652;2023-11-21T12:52:59;29.58;76.59
63899;HTU21D;50070;-32.946;-60.652;2023-11-21T12:55:29;29.66;76.56
63899;HTU21D;50070;-32.946;-60.652;2023-11-21T12:57:56;29.95;73.93
63899;HTU21D;50070;-32.946;-60.652;2023-11-21T13:00:34;29.54;77.69
63899;HTU21D;50070;-32.946;-60.652;2023-11-21T13:03:07;29.63;78.14
63899;HTU21D;50070;-32.946;-60.652;2023-11-21T13:05:36;29.70;78.13
63899;HTU21D;50070;-32.946;-60.652;2023-11-21T13:08:11;30.02;75.35
63899;HTU21D;50070;-32.946;-60.652;2023-11-21T13:10:43;29.98;75.57
63899;HTU21D;50070;-32.946;-60.652;2023-11-21T13:13:13;29.85;75.99
63899;HTU21D;50070;-32.946;-60.652;2023-11-21T13:15:54;30.20;73.84
63899;HTU21D;50070;-32.946;-60.652;2023-11-21T13:18:28;30.40;72.73
63899;HTU21D;50070;-32.946;-60.652;2023-11-21T13:20:56;30.48;71.80
63899;HTU21D;50070;-32.946;-60.652;2023-11-21T13:23:24;30.85;69.37
63899;HTU21D;50070;-32.946;-60.652;2023-11-21T13:25:52;31.29;66.59
63899;HTU21D;50070;-32.946;-60.652;2023-11-21T13:28:19;30.38;71.47
63899;HTU21D;50070;-32.946;-60.652;2023-11-21T13:30:49;29.90;74.41
63899;HTU21D;50070;-32.946;-60.652;2023-11-21T13:33:18;30.04;72.78
63899;HTU21D;50070;-32.946;-60.652;2023-11-21T13:35:48;30.42;70.35
63899;HTU21D;50070;-32.946;-60.652;2023-11-21T13:38:18;30.46;69.78
63899;HTU21D;50070;-32.946;-60.652;2023-11-21T13:40:50;30.47;70.91
63899;HTU21D;50070;-32.946;-60.652;2023-11-21T13:43:22;30.23;71.64
63899;HTU21D;50070;-32.946;-60.652;2023-11-21T13:45:51;30.46;72.53
63899;HTU21D;50070;-32.946;-60.652;2023-11-21T13:48:26;31.02;67.92
63899;HTU21D;50070;-32.946;-60.652;2023-11-21T13:51:09;30.44;70.47
63899;HTU21D;50070;-32.946;-60.652;2023-11-21T13:53:49;30.27;72.19
63899;HTU21D;50070;-32.946;-60.652;2023-11-21T13:56:18;30.28;72.80
63899;HTU21D;50070;-32.946;-60.652;2023-11-21T13:58:54;30.32;73.28
63899;HTU21D;50070;-32.946;-60.652;2023-11-21T14:01:23;30.19;74.68
63899;HTU21D;50070;-32.946;-60.652;2023-11-21T14:04:01;29.83;75.02
63899;HTU21D;50070;-32.946;-60.652;2023-11-21T14:06:37;30.12;73.33
63899;HTU21D;50070;-32.946;-60.652;2023-11-21T14:09:23;30.27;70.16
63899;HTU21D;50070;-32.946;-60.652;2023-11-21T14:11:59;30.16;72.32
63899;HTU21D;50070;-32.946;-60.652;2023-11-21T14:14:29;30.40;70.82
63899;HTU21D;50070;-32.946;-60.652;2023-11-21T14:16:55;30.53;70.45
63899;HTU21D;50070;-32.946;-60.652;2023-11-21T14:19:24;30.39;70.54
63899;HTU21D;50070;-32.946;-60.652;2023-11-21T14:21:57;30.55;69.71
63899;HTU21D;50070;-32.946;-60.652;2023-11-21T14:24:24;30.36;70.41
63899;HTU21D;50070;-32.946;-60.652;2023-11-21T14:26:51;30.38;68.71
63899;HTU21D;50070;-32.946;-60.652;2023-11-21T14:29:19;30.49;66.04
63899;HTU21D;50070;-32.946;-60.652;2023-11-21T14:31:49;30.66;64.82
63899;HTU21D;50070;-32.946;-60.652;2023-11-21T14:34:17;30.72;63.94
63899;HTU21D;50070;-32.946;-60.652;2023-11-21T14:36:44;30.87;63.30
63899;HTU21D;50070;-32.946;-60.652;2023-11-21T14:39:11;31.20;62.00
63899;HTU21D;50070;-32.946;-60.652;2023-11-21T14:41:50;31.53;59.07
63899;HTU21D;50070;-32.946;-60.652;2023-11-21T14:44:16;31.24;62.00
63899;HTU21D;50070;-32.946;-60.652;2023-11-21T14:46:43;31.92;58.68
63899;HTU21D;50070;-32.946;-60.652;2023-11-21T14:49:12;32.40;55.99
63899;HTU21D;50070;-32.946;-60.652;2023-11-21T14:51:51;32.55;55.97
63899;HTU21D;50070;-32.946;-60.652;2023-11-21T14:54:33;32.69;55.39